Cismont, Virginia
Current Conditions -  °F | °C
As of 8:53 AM on Friday 19 Dec 2014 (Local Time) from KCHO Reporting Station
Clear Clear  
Wind Chill: 25°   Ceiling: Unl
Heat Index: 31°   Visibility: 10mi
Dew Point: 25°   Wind: 6mph
Humidity: 79%   Direction: 200°SSW
Pressure: 30.16"   Gusts: NA
Location:  38.0053°N, 78.3345°W
Report Text: KCHO 191353Z 20005KT 10SM CLR M01/M04 A3016 RMK AO2 SLP215 T10061039
Loading
Personal Weather Stations






























Interactive Weather Map New forecast layout! Learn more

10-Day Weather Forecast

Advertisements
Track Severe Weather on mobile